Terminal Aerodrome Forecast
Issued by NWS Shreveport, LA

Home | Current Version | Previous Version | Text Only | Print | Product List | Glossary On
Versions: 1 2 3 4 5 6 7 8 9 10 11 12 13 14 15 16 17 18 19
567
FTUS44 KSHV 242330
TAFMLU
TAF
KMLU 242330Z 2500/2524 17014G22KT P6SM SCT040
     FM250400 19015G25KT P6SM VCTS BKN030CB
     FM250800 20012KT P6SM SCT025
      TEMPO 2509/2513 BKN020
     FM251600 24012G20KT P6SM VCTS BKN040CB
     FM252100 25012KT P6SM SKC=

USA.gov is the U.S. government's official web portal to all federal, state and local government web resources and services.